Time;durP1;ratioP1;P1;durP2;ratioP2;P2;SDS_P1;SDS_P2;PMS_P1;PMS_P2;Temp;Humidity;BMP_temperature;BMP_pressure;BME280_temperature;BME280_humidity;BME280_pressure;Samples;Min_cycle;Max_cycle;Signal;HPM_P1;HPM_P2
2022/06/11 00:01:04;;;;;;;34.45;4.07;;;;;;;;;;6245877;23;20008;-69
2022/06/11 00:03:30;;;;;;;36.53;4.28;;;;;;;;;;6246128;23;20290;-70
2022/06/11 00:05:55;;;;;;;34.65;3.90;;;;;;;;;;6245713;23;20008;-70
2022/06/11 00:08:21;;;;;;;26.60;3.55;;;;;;;;;;6246285;23;20000;-70
2022/06/11 00:10:46;;;;;;;38.00;4.60;;;;;;;;;;6246222;23;20023;-70
2022/06/11 00:13:12;;;;;;;39.65;5.25;;;;;;;;;;6246152;23;20424;-69
2022/06/11 00:15:38;;;;;;;42.28;4.57;;;;;;;;;;6245674;23;20000;-69
2022/06/11 00:18:04;;;;;;;27.17;3.95;;;;;;;;;;6246277;23;19995;-69
2022/06/11 00:20:30;;;;;;;22.33;3.50;;;;;;;;;;6246553;23;20000;-70
2022/06/11 00:22:56;;;;;;;39.67;4.60;;;;;;;;;;6245466;23;20364;-70
2022/06/11 00:25:21;;;;;;;31.88;4.75;;;;;;;;;;6246251;23;20050;-70
2022/06/11 00:27:47;;;;;;;34.88;4.20;;;;;;;;;;6245785;23;20524;-70
2022/06/11 00:30:13;;;;;;;33.42;5.05;;;;;;;;;;6245751;23;19996;-70
2022/06/11 00:32:39;;;;;;;31.23;4.10;;;;;;;;;;6245926;23;20020;-70
2022/06/11 00:35:05;;;;;;;29.73;3.58;;;;;;;;;;6245815;23;20436;-70
2022/06/11 00:37:30;;;;;;;31.58;3.78;;;;;;;;;;6245558;23;19996;-69
2022/06/11 00:39:55;;;;;;;26.00;3.28;;;;;;;;;;6218950;23;19992;-69
2022/06/11 00:42:22;;;;;;;30.92;3.13;;;;;;;;;;6245949;23;20020;-70
2022/06/11 00:44:48;;;;;;;25.05;3.08;;;;;;;;;;6245831;23;20060;-70
2022/06/11 00:47:16;;;;;;;33.25;4.00;;;;;;;;;;6245589;23;20015;-70
2022/06/11 00:49:52;;;;;;;24.10;3.72;;;;;;;;;;6245568;23;20046;-70
2022/06/11 00:52:18;;;;;;;24.30;4.22;;;;;;;;;;6246080;23;20368;-70
2022/06/11 00:54:45;;;;;;;33.83;4.10;;;;;;;;;;6245723;23;20321;-69
2022/06/11 00:57:11;;;;;;;31.63;3.70;;;;;;;;;;6245815;23;20397;-70
2022/06/11 00:59:41;;;;;;;22.40;3.45;;;;;;;;;;6245461;23;19999;-69
2022/06/11 01:02:07;;;;;;;18.50;2.90;;;;;;;;;;6245407;23;20090;-69
2022/06/11 01:04:47;;;;;;;26.67;3.40;;;;;;;;;;6245378;23;20393;-69
2022/06/11 01:07:12;;;;;;;27.23;3.50;;;;;;;;;;6245640;23;20079;-69
2022/06/11 01:09:52;;;;;;;31.05;3.83;;;;;;;;;;6245384;23;20042;-70
2022/06/11 01:12:20;;;;;;;32.30;4.57;;;;;;;;;;6245392;23;20427;-69
2022/06/11 01:15:09;;;;;;;29.23;3.97;;;;;;;;;;6245164;23;20367;-69
2022/06/11 01:17:38;;;;;;;32.25;4.05;;;;;;;;;;6228643;23;20328;-69
2022/06/11 01:20:19;;;;;;;31.98;3.35;;;;;;;;;;6245353;23;20049;-69
2022/06/11 01:23:05;;;;;;;26.58;3.58;;;;;;;;;;6245292;23;20525;-70
2022/06/11 01:25:32;;;;;;;35.90;4.78;;;;;;;;;;6245039;23;20487;-69
2022/06/11 01:27:57;;;;;;;36.35;4.55;;;;;;;;;;6245672;23;20008;-69
2022/06/11 01:30:24;;;;;;;35.05;4.28;;;;;;;;;;6245535;23;20008;-69
2022/06/11 01:32:52;;;;;;;28.95;3.83;;;;;;;;;;6245767;23;19996;-69
2022/06/11 01:35:40;;;;;;;34.08;4.18;;;;;;;;;;6245670;23;20312;-69
2022/06/11 01:38:10;;;;;;;35.33;4.15;;;;;;;;;;6187924;23;20020;-69
2022/06/11 01:40:50;;;;;;;30.45;3.47;;;;;;;;;;6245594;23;20004;-70
2022/06/11 01:43:22;;;;;;;27.55;3.10;;;;;;;;;;6245686;23;20016;-69
2022/06/11 01:45:48;;;;;;;22.92;4.53;;;;;;;;;;6247384;23;20026;-69
2022/06/11 01:48:16;;;;;;;27.80;3.70;;;;;;;;;;6247625;23;20440;-69
2022/06/11 01:50:46;;;;;;;34.97;3.60;;;;;;;;;;6246739;23;20019;-69
2022/06/11 01:53:30;;;;;;;34.78;3.78;;;;;;;;;;6247631;23;20008;-69
2022/06/11 01:56:04;;;;;;;27.45;4.05;;;;;;;;;;6247497;23;20005;-69
2022/06/11 01:58:29;;;;;;;;;;;;;;;;;;6247694;23;20030;-69
2022/06/11 02:01:15;;;;;;;29.27;3.70;;;;;;;;;;6246710;23;19900;-69
2022/06/11 02:03:52;;;;;;;25.23;3.60;;;;;;;;;;6247129;23;20012;-69
2022/06/11 02:06:36;;;;;;;27.10;4.18;;;;;;;;;;6247674;23;20049;-69
2022/06/11 02:09:01;;;;;;;40.88;5.78;;;;;;;;;;6247314;23;20102;-69
2022/06/11 02:11:30;;;;;;;21.73;3.35;;;;;;;;;;6247546;23;20428;-69
2022/06/11 02:13:59;;;;;;;33.97;4.20;;;;;;;;;;6220000;23;20008;-69
2022/06/11 02:16:39;;;;;;;28.92;3.35;;;;;;;;;;6210814;23;20004;-69
2022/06/11 02:19:08;;;;;;;25.67;3.85;;;;;;;;;;6244631;23;20000;-69
2022/06/11 02:21:36;;;;;;;30.35;4.43;;;;;;;;;;6245430;23;20019;-69
2022/06/11 02:24:11;;;;;;;27.83;3.63;;;;;;;;;;6247305;23;20004;-69
2022/06/11 02:26:39;;;;;;;34.05;4.00;;;;;;;;;;6247038;23;20111;-69
2022/06/11 02:29:05;;;;;;;27.55;3.08;;;;;;;;;;6247005;23;20080;-69
2022/06/11 02:31:38;;;;;;;28.83;4.47;;;;;;;;;;6247253;23;19992;-69
2022/06/11 02:34:05;;;;;;;29.58;4.75;;;;;;;;;;6246877;23;20424;-69
2022/06/11 02:36:32;;;;;;;27.48;3.30;;;;;;;;;;6247292;23;20008;-69
2022/06/11 02:38:59;;;;;;;31.13;3.92;;;;;;;;;;6246889;23;20016;-69
2022/06/11 02:41:26;;;;;;;31.73;3.90;;;;;;;;;;6246911;23;20010;-69
2022/06/11 02:43:51;;;;;;;16.40;3.05;;;;;;;;;;6246471;23;20440;-69
2022/06/11 02:49:01;;;;;;;36.20;4.80;;;;;;;;;;6246556;23;20071;-69
2022/06/11 02:51:28;;;;;;;32.05;3.67;;;;;;;;;;6246633;23;20004;-69
2022/06/11 02:53:53;;;;;;;24.05;3.08;;;;;;;;;;6246421;23;20432;-69
2022/06/11 02:56:18;;;;;;;37.45;3.75;;;;;;;;;;6246664;23;20007;-69
2022/06/11 02:58:43;;;;;;;37.42;4.20;;;;;;;;;;6246837;23;20008;-69
2022/06/11 03:01:09;;;;;;;40.03;4.95;;;;;;;;;;6246813;23;20012;-69
2022/06/11 03:03:35;;;;;;;36.00;4.40;;;;;;;;;;6220024;23;20004;-69
2022/06/11 03:06:01;;;;;;;32.88;3.53;;;;;;;;;;6246916;23;20415;-69
2022/06/11 03:08:26;;;;;;;35.40;3.63;;;;;;;;;;6220011;23;20015;-69
2022/06/11 03:10:54;;;;;;;26.50;3.67;;;;;;;;;;6246595;23;20408;-69
2022/06/11 03:13:23;;;;;;;29.98;3.70;;;;;;;;;;6246842;23;20011;-69
2022/06/11 03:15:48;;;;;;;26.38;3.70;;;;;;;;;;6246835;23;20432;-69
2022/06/11 03:18:14;;;;;;;27.80;4.20;;;;;;;;;;6246628;23;20019;-69
2022/06/11 03:20:39;;;;;;;33.63;4.85;;;;;;;;;;6246962;23;20098;-69
2022/06/11 03:23:05;;;;;;;33.65;3.55;;;;;;;;;;6246726;23;20385;-69
2022/06/11 03:25:30;;;;;;;35.15;3.60;;;;;;;;;;6246452;23;20324;-69
2022/06/11 03:27:56;;;;;;;26.98;3.65;;;;;;;;;;6247249;23;20007;-69
2022/06/11 03:30:21;;;;;;;21.75;2.97;;;;;;;;;;6246445;23;20004;-69
2022/06/11 03:32:46;;;;;;;32.63;3.35;;;;;;;;;;6246570;23;19999;-69
2022/06/11 03:35:12;;;;;;;31.85;3.28;;;;;;;;;;6246354;23;20046;-69
2022/06/11 03:37:37;;;;;;;34.25;4.63;;;;;;;;;;6246470;23;20020;-69
2022/06/11 03:40:03;;;;;;;24.70;3.90;;;;;;;;;;6246049;23;20049;-69
2022/06/11 03:42:28;;;;;;;23.50;3.55;;;;;;;;;;6246135;23;20015;-69
2022/06/11 03:44:54;;;;;;;36.38;3.28;;;;;;;;;;6246526;23;20004;-69
2022/06/11 03:47:19;;;;;;;20.65;3.60;;;;;;;;;;6246309;23;20474;-69
2022/06/11 03:49:44;;;;;;;24.42;4.03;;;;;;;;;;6246285;23;20039;-69
2022/06/11 03:52:10;;;;;;;27.17;3.53;;;;;;;;;;6246493;23;20389;-69
2022/06/11 03:54:36;;;;;;;18.00;3.35;;;;;;;;;;6246291;23;20018;-69
2022/06/11 03:57:01;;;;;;;17.50;3.30;;;;;;;;;;6246388;23;20008;-69
2022/06/11 03:59:26;;;;;;;30.25;3.83;;;;;;;;;;6246250;23;20007;-69
2022/06/11 04:01:51;;;;;;;20.95;3.00;;;;;;;;;;6246205;23;20102;-69
2022/06/11 04:04:18;;;;;;;21.42;2.80;;;;;;;;;;6246352;23;20012;-69
2022/06/11 04:06:45;;;;;;;28.30;3.45;;;;;;;;;;6245718;23;20004;-69
2022/06/11 04:09:13;;;;;;;25.98;4.20;;;;;;;;;;6246743;23;20054;-69
2022/06/11 04:11:39;;;;;;;22.83;3.13;;;;;;;;;;6246122;23;20004;-69
2022/06/11 04:14:04;;;;;;;22.98;2.95;;;;;;;;;;6245934;23;20130;-69
2022/06/11 04:16:44;;;;;;;28.60;3.33;;;;;;;;;;6246100;23;20316;-69
2022/06/11 04:19:13;;;;;;;25.48;3.22;;;;;;;;;;6246408;23;20004;-69
2022/06/11 04:21:39;;;;;;;33.30;3.50;;;;;;;;;;6246079;23;20000;-69
2022/06/11 04:24:05;;;;;;;28.65;3.85;;;;;;;;;;6245937;23;20060;-69
2022/06/11 04:26:33;;;;;;;24.33;3.70;;;;;;;;;;6245840;23;20004;-69
2022/06/11 04:29:00;;;;;;;22.35;3.13;;;;;;;;;;6245566;23;19992;-69
2022/06/11 04:31:26;;;;;;;30.83;4.25;;;;;;;;;;6218842;23;20420;-69
2022/06/11 04:33:51;;;;;;;19.30;2.97;;;;;;;;;;6245574;23;20004;-69
2022/06/11 04:36:17;;;;;;;24.67;3.45;;;;;;;;;;6246274;23;20071;-69
2022/06/11 04:38:42;;;;;;;19.95;2.42;;;;;;;;;;6245671;23;20482;-69
2022/06/11 04:41:08;;;;;;;17.50;3.08;;;;;;;;;;6245796;23;20057;-69
2022/06/11 04:43:33;;;;;;;19.67;2.47;;;;;;;;;;6245664;23;20007;-69
2022/06/11 04:45:59;;;;;;;25.08;3.50;;;;;;;;;;6245751;23;20366;-69
2022/06/11 04:48:24;;;;;;;25.95;3.08;;;;;;;;;;6245590;23;20000;-69
2022/06/11 04:50:49;;;;;;;23.25;2.88;;;;;;;;;;6245439;23;20024;-69
2022/06/11 04:53:15;;;;;;;22.23;3.00;;;;;;;;;;6246273;23;20031;-69
2022/06/11 04:55:40;;;;;;;24.20;3.97;;;;;;;;;;6245802;23;20320;-69
2022/06/11 04:58:06;;;;;;;21.40;3.30;;;;;;;;;;6245392;23;19992;-69
2022/06/11 05:00:31;;;;;;;20.17;2.70;;;;;;;;;;6246093;23;20004;-70
2022/06/11 05:02:57;;;;;;;20.63;2.80;;;;;;;;;;6245650;23;20679;-70
2022/06/11 05:05:22;;;;;;;18.35;3.53;;;;;;;;;;6245366;23;19992;-70
2022/06/11 05:07:48;;;;;;;26.98;3.42;;;;;;;;;;6245937;23;20008;-69
2022/06/11 05:10:14;;;;;;;21.35;3.95;;;;;;;;;;6245138;23;20383;-70
2022/06/11 05:12:40;;;;;;;14.02;2.80;;;;;;;;;;6245762;23;20000;-70
2022/06/11 05:15:05;;;;;;;18.48;2.83;;;;;;;;;;6245144;23;20099;-69
2022/06/11 05:17:31;;;;;;;16.52;2.45;;;;;;;;;;6245457;23;20192;-70
2022/06/11 05:19:56;;;;;;;17.10;2.90;;;;;;;;;;6245334;23;19996;-70
2022/06/11 05:22:21;;;;;;;11.80;2.72;;;;;;;;;;6245611;23;20016;-70
2022/06/11 05:24:47;;;;;;;18.25;2.78;;;;;;;;;;6245289;23;20000;-70
2022/06/11 05:27:14;;;;;;;13.82;2.53;;;;;;;;;;6245716;23;19992;-70
2022/06/11 05:29:59;;;;;;;14.27;2.63;;;;;;;;;;6245502;23;20008;-70
2022/06/11 05:32:29;;;;;;;20.27;2.97;;;;;;;;;;6245472;23;20039;-70
2022/06/11 05:34:55;;;;;;;17.35;3.05;;;;;;;;;;6245347;23;20004;-70
2022/06/11 05:37:20;;;;;;;18.42;3.17;;;;;;;;;;6245500;23;19992;-70
2022/06/11 05:39:49;;;;;;;19.60;3.08;;;;;;;;;;6245423;23;20039;-70
2022/06/11 05:42:15;;;;;;;15.45;2.67;;;;;;;;;;6245133;23;20012;-69
2022/06/11 05:44:40;;;;;;;18.88;3.22;;;;;;;;;;6245344;23;19999;-69
2022/06/11 05:47:06;;;;;;;23.08;2.95;;;;;;;;;;6245580;23;20316;-70
2022/06/11 05:49:37;;;;;;;19.73;3.08;;;;;;;;;;6245463;23;20016;-69
2022/06/11 05:52:06;;;;;;;27.02;3.13;;;;;;;;;;6245318;23;20000;-69
2022/06/11 05:54:33;;;;;;;22.95;3.67;;;;;;;;;;6245250;23;20328;-70
2022/06/11 05:56:58;;;;;;;22.75;3.45;;;;;;;;;;6245234;23;20000;-70
2022/06/11 05:59:26;;;;;;;20.30;3.08;;;;;;;;;;6245334;23;19996;-70
2022/06/11 06:01:53;;;;;;;13.95;2.65;;;;;;;;;;6245187;23;20016;-70
2022/06/11 06:04:18;;;;;;;28.50;3.33;;;;;;;;;;6245159;23;20015;-70
2022/06/11 06:06:44;;;;;;;24.25;3.40;;;;;;;;;;6244816;23;20024;-70
2022/06/11 06:09:09;;;;;;;19.98;2.75;;;;;;;;;;6244707;23;20008;-70
2022/06/11 06:11:34;;;;;;;24.88;3.85;;;;;;;;;;6245467;23;20047;-70
2022/06/11 06:13:59;;;;;;;26.42;3.10;;;;;;;;;;6245148;23;20400;-70
2022/06/11 06:16:29;;;;;;;19.75;2.67;;;;;;;;;;6245769;23;20014;-69
2022/06/11 06:18:55;;;;;;;21.05;3.00;;;;;;;;;;6245010;23;20473;-69
2022/06/11 06:21:21;;;;;;;17.77;2.83;;;;;;;;;;6245178;23;20004;-70
2022/06/11 06:23:47;;;;;;;13.82;2.78;;;;;;;;;;6245362;23;20079;-71
2022/06/11 06:26:13;;;;;;;14.73;3.00;;;;;;;;;;6245341;23;20042;-71
2022/06/11 06:28:38;;;;;;;17.90;3.00;;;;;;;;;;6245316;23;20328;-71
2022/06/11 06:31:05;;;;;;;15.50;3.03;;;;;;;;;;6246171;23;20171;-71
2022/06/11 06:33:30;;;;;;;15.38;3.03;;;;;;;;;;6246731;23;20012;-71
2022/06/11 06:35:59;;;;;;;19.40;2.83;;;;;;;;;;6247091;23;20007;-71
2022/06/11 06:38:25;;;;;;;18.08;3.28;;;;;;;;;;6246492;23;20476;-71
2022/06/11 06:40:50;;;;;;;19.38;3.17;;;;;;;;;;6247206;23;20042;-71
2022/06/11 06:43:16;;;;;;;16.40;2.85;;;;;;;;;;6247269;23;20004;-71
2022/06/11 06:45:41;;;;;;;15.65;2.85;;;;;;;;;;6247094;23;20000;-71
2022/06/11 06:48:07;;;;;;;14.18;2.50;;;;;;;;;;6247561;23;20004;-71
2022/06/11 06:50:32;;;;;;;14.35;2.92;;;;;;;;;;6247157;23;19996;-71
2022/06/11 06:52:57;;;;;;;17.38;2.85;;;;;;;;;;6247559;23;20078;-71
2022/06/11 06:55:23;;;;;;;13.73;2.70;;;;;;;;;;6247580;23;20007;-71
2022/06/11 06:57:49;;;;;;;13.75;2.80;;;;;;;;;;6247068;23;19992;-71
2022/06/11 07:00:17;;;;;;;14.23;2.97;;;;;;;;;;6247095;23;20000;-71
2022/06/11 07:02:42;;;;;;;12.02;2.50;;;;;;;;;;6246859;23;20395;-71
2022/06/11 07:05:09;;;;;;;14.77;2.83;;;;;;;;;;6246776;23;20001;-71
2022/06/11 07:07:35;;;;;;;12.27;2.63;;;;;;;;;;6246735;23;20290;-71
2022/06/11 07:10:00;;;;;;;13.68;2.95;;;;;;;;;;6246271;23;20011;-72
2022/06/11 07:12:26;;;;;;;13.15;2.45;;;;;;;;;;6246490;23;20305;-71
2022/06/11 07:14:51;;;;;;;17.35;2.83;;;;;;;;;;6246034;23;20042;-71
2022/06/11 07:17:17;;;;;;;16.58;2.92;;;;;;;;;;6247348;23;20387;-71
2022/06/11 07:19:49;;;;;;;17.27;2.90;;;;;;;;;;6246478;23;20000;-71
2022/06/11 07:22:21;;;;;;;12.80;2.22;;;;;;;;;;6247152;23;20076;-71
2022/06/11 07:24:46;;;;;;;13.05;2.45;;;;;;;;;;6246165;23;20329;-71
2022/06/11 07:27:14;;;;;;;12.60;2.80;;;;;;;;;;6246475;23;20002;-71
2022/06/11 07:29:45;;;;;;;12.52;2.92;;;;;;;;;;6247098;23;20004;-71
2022/06/11 07:32:13;;;;;;;17.45;3.10;;;;;;;;;;6246417;23;20012;-72
2022/06/11 07:34:39;;;;;;;12.93;2.30;;;;;;;;;;6246796;23;19988;-71
2022/06/11 07:37:04;;;;;;;15.82;2.60;;;;;;;;;;6246645;23;20047;-71
2022/06/11 07:39:29;;;;;;;17.58;3.17;;;;;;;;;;6246448;23;20057;-71
2022/06/11 07:41:55;;;;;;;15.10;2.90;;;;;;;;;;6246048;23;20061;-70
2022/06/11 07:44:20;;;;;;;18.90;3.05;;;;;;;;;;6245468;23;20015;-71
2022/06/11 07:46:45;;;;;;;15.43;2.72;;;;;;;;;;6246660;23;20011;-72
2022/06/11 07:49:11;;;;;;;15.43;3.08;;;;;;;;;;6245947;23;20002;-71
2022/06/11 07:51:36;;;;;;;16.15;2.95;;;;;;;;;;6246151;23;20007;-72
2022/06/11 07:54:01;;;;;;;13.93;3.28;;;;;;;;;;6246808;23;20004;-72
2022/06/11 07:56:27;;;;;;;12.63;2.83;;;;;;;;;;6246970;23;19997;-72
2022/06/11 07:58:55;;;;;;;14.10;3.03;;;;;;;;;;6246381;23;20010;-72
2022/06/11 08:01:20;;;;;;;16.20;3.25;;;;;;;;;;6246616;23;20031;-72
2022/06/11 08:03:45;;;;;;;11.95;2.75;;;;;;;;;;6246694;23;20451;-71
2022/06/11 08:06:10;;;;;;;14.77;3.25;;;;;;;;;;6246204;23;20070;-71
2022/06/11 08:08:36;;;;;;;13.63;3.13;;;;;;;;;;6246176;23;20004;-71
2022/06/11 08:11:03;;;;;;;15.30;3.13;;;;;;;;;;6246411;23;20007;-71
2022/06/11 08:13:28;;;;;;;14.93;3.20;;;;;;;;;;6246527;23;20068;-72
2022/06/11 08:15:54;;;;;;;14.50;2.88;;;;;;;;;;6245859;23;20027;-72
2022/06/11 08:18:20;;;;;;;16.33;2.85;;;;;;;;;;6245642;23;19992;-71
2022/06/11 08:20:46;;;;;;;10.38;2.55;;;;;;;;;;6246136;23;20448;-72
2022/06/11 08:23:11;;;;;;;16.80;2.95;;;;;;;;;;6245682;23;20071;-71
2022/06/11 08:25:37;;;;;;;14.18;2.90;;;;;;;;;;6245256;23;19999;-72
2022/06/11 08:28:03;;;;;;;14.50;2.92;;;;;;;;;;6246029;23;20004;-71
2022/06/11 08:30:29;;;;;;;14.27;3.10;;;;;;;;;;6246004;23;20004;-71
2022/06/11 08:32:55;;;;;;;9.20;2.40;;;;;;;;;;6246138;23;19988;-72
2022/06/11 08:35:22;;;;;;;11.48;2.88;;;;;;;;;;6245750;23;20011;-72
2022/06/11 08:37:47;;;;;;;15.80;4.15;;;;;;;;;;6219141;23;20086;-72
2022/06/11 08:40:21;;;;;;;11.85;2.72;;;;;;;;;;6245972;23;20408;-71
2022/06/11 08:42:50;;;;;;;12.70;2.92;;;;;;;;;;6245991;23;20038;-71
2022/06/11 08:45:19;;;;;;;15.73;2.83;;;;;;;;;;6245696;23;20495;-71
2022/06/11 08:47:47;;;;;;;12.68;2.90;;;;;;;;;;6246078;23;19996;-72
2022/06/11 08:50:14;;;;;;;13.30;3.47;;;;;;;;;;6246099;23;20007;-71
2022/06/11 08:52:39;;;;;;;13.38;3.00;;;;;;;;;;6245604;23;20039;-72
2022/06/11 08:55:05;;;;;;;13.25;3.10;;;;;;;;;;6245878;23;19988;-72
2022/06/11 08:57:30;;;;;;;13.30;2.67;;;;;;;;;;6245676;23;20007;-71
2022/06/11 09:00:05;;;;;;;17.50;3.20;;;;;;;;;;6234901;23;20011;-72
2022/06/11 09:02:38;;;;;;;10.82;2.33;;;;;;;;;;6244258;23;20562;-71
2022/06/11 09:05:22;;;;;;;12.02;2.65;;;;;;;;;;6245342;23;20004;-71
2022/06/11 09:08:08;;;;;;;13.40;3.30;;;;;;;;;;6244639;23;20016;-71
2022/06/11 09:10:33;;;;;;;11.70;2.80;;;;;;;;;;6244766;23;20012;-71
2022/06/11 09:13:14;;;;;;;17.23;3.13;;;;;;;;;;6244939;23;20022;-71
2022/06/11 09:15:45;;;;;;;12.52;2.38;;;;;;;;;;6245359;23;20229;-71
2022/06/11 09:18:13;;;;;;;12.85;2.65;;;;;;;;;;6205807;23;20001;-71
2022/06/11 09:21:04;;;;;;;16.30;3.65;;;;;;;;;;6240482;23;20012;-71
2022/06/11 09:23:50;;;;;;;17.70;2.58;;;;;;;;;;6192861;23;20024;-72
2022/06/11 09:26:28;;;;;;;12.23;2.58;;;;;;;;;;6239661;23;20008;-72
2022/06/11 09:29:11;;;;;;;12.82;2.50;;;;;;;;;;6240599;23;20008;-71
2022/06/11 09:31:43;;;;;;;16.58;3.03;;;;;;;;;;6242407;23;20086;-72
2022/06/11 09:34:18;;;;;;;10.27;2.78;;;;;;;;;;6241552;23;20001;-72
2022/06/11 09:36:55;;;;;;;13.10;3.20;;;;;;;;;;6243483;23;20065;-72
2022/06/11 09:39:20;;;;;;;17.60;3.42;;;;;;;;;;6244429;23;20097;-72
2022/06/11 09:41:59;;;;;;;12.57;2.90;;;;;;;;;;6243687;23;20012;-71
2022/06/11 09:44:34;;;;;;;18.88;3.20;;;;;;;;;;6243920;23;20234;-72
2022/06/11 09:47:07;;;;;;;9.65;3.17;;;;;;;;;;6244291;23;20008;-72
2022/06/11 09:49:35;;;;;;;12.75;3.28;;;;;;;;;;6245098;23;20008;-72
2022/06/11 09:52:07;;;;;;;11.30;2.58;;;;;;;;;;6245152;23;20114;-71
2022/06/11 09:54:38;;;;;;;15.30;2.97;;;;;;;;;;6245915;23;19996;-71
2022/06/11 09:57:09;;;;;;;13.02;3.10;;;;;;;;;;6244125;23;20324;-72
2022/06/11 09:59:37;;;;;;;16.65;2.95;;;;;;;;;;6243282;23;19999;-71
2022/06/11 10:02:19;;;;;;;12.82;3.05;;;;;;;;;;6244683;23;20428;-71
2022/06/11 10:04:46;;;;;;;15.60;2.97;;;;;;;;;;6245716;23;20302;-71
2022/06/11 10:07:17;;;;;;;22.05;3.85;;;;;;;;;;6247394;23;20004;-71
2022/06/11 10:09:49;;;;;;;12.60;2.90;;;;;;;;;;6246312;23;20000;-71
2022/06/11 10:12:14;;;;;;;11.93;2.85;;;;;;;;;;6246358;23;20034;-71
2022/06/11 10:14:45;;;;;;;12.30;2.77;;;;;;;;;;6246974;23;20012;-71
2022/06/11 10:17:13;;;;;;;15.20;2.53;;;;;;;;;;6246124;23;20685;-71
2022/06/11 10:19:49;;;;;;;12.82;3.00;;;;;;;;;;6235929;23;20001;-72
2022/06/11 10:22:16;;;;;;;16.42;3.22;;;;;;;;;;6233023;23;20051;-72
2022/06/11 10:24:46;;;;;;;11.80;3.30;;;;;;;;;;6233436;23;20014;-72
2022/06/11 10:27:13;;;;;;;14.20;2.90;;;;;;;;;;6237692;23;20023;-72
2022/06/11 10:29:46;;;;;;;12.30;3.17;;;;;;;;;;6233521;23;20000;-72
2022/06/11 10:32:17;;;;;;;11.10;2.78;;;;;;;;;;6237539;23;20100;-72
2022/06/11 10:34:47;;;;;;;12.23;2.85;;;;;;;;;;6236710;23;20035;-72
2022/06/11 10:37:18;;;;;;;10.95;2.67;;;;;;;;;;6236990;23;20415;-71
2022/06/11 10:40:16;;;;;;;14.73;3.30;;;;;;;;;;6233962;23;20047;-71
2022/06/11 10:42:46;;;;;;;10.75;2.75;;;;;;;;;;6170438;23;20023;-71
2022/06/11 10:45:15;;;;;;;11.57;2.25;;;;;;;;;;6238500;23;20082;-71
2022/06/11 10:47:42;;;;;;;9.45;2.70;;;;;;;;;;6239187;23;20031;-71
2022/06/11 10:50:17;;;;;;;11.73;2.58;;;;;;;;;;6236122;23;20313;-71
2022/06/11 10:52:48;;;;;;;13.05;2.80;;;;;;;;;;6243054;23;20008;-70
2022/06/11 10:55:17;;;;;;;13.77;3.17;;;;;;;;;;6246510;23;19996;-71
2022/06/11 10:57:43;;;;;;;9.55;2.38;;;;;;;;;;6246669;23;20016;-71
2022/06/11 11:00:14;;;;;;;11.13;3.08;;;;;;;;;;6245564;23;19996;-70
2022/06/11 11:02:44;;;;;;;13.65;2.92;;;;;;;;;;6245982;23;20008;-71
2022/06/11 11:05:10;;;;;;;8.60;2.10;;;;;;;;;;6246816;23;20008;-71
2022/06/11 11:07:55;;;;;;;15.60;2.90;;;;;;;;;;6246687;23;19992;-71
2022/06/11 11:10:36;;;;;;;9.85;2.58;;;;;;;;;;6247142;23;20005;-70
2022/06/11 11:13:03;;;;;;;10.25;2.40;;;;;;;;;;6239557;23;20004;-71
2022/06/11 11:15:36;;;;;;;10.82;2.45;;;;;;;;;;6246751;23;20000;-71
2022/06/11 11:18:08;;;;;;;7.95;1.92;;;;;;;;;;6246785;23;20091;-71
2022/06/11 11:20:40;;;;;;;10.88;2.58;;;;;;;;;;6245810;23;20560;-71
2022/06/11 11:23:11;;;;;;;14.95;2.75;;;;;;;;;;6245334;23;20016;-70
2022/06/11 11:25:38;;;;;;;9.10;2.45;;;;;;;;;;6246650;23;20046;-70
2022/06/11 11:28:05;;;;;;;14.57;2.30;;;;;;;;;;6245729;23;20501;-71
2022/06/11 11:30:30;;;;;;;14.23;2.63;;;;;;;;;;6246598;23;20329;-71
2022/06/11 11:32:55;;;;;;;11.00;2.35;;;;;;;;;;6239794;23;20004;-70
2022/06/11 11:35:24;;;;;;;9.52;2.38;;;;;;;;;;6241371;23;20008;-70
2022/06/11 11:38:16;;;;;;;7.55;2.13;;;;;;;;;;6241359;23;20077;-70
2022/06/11 11:40:47;;;;;;;6.82;1.90;;;;;;;;;;6235497;23;20008;-70
2022/06/11 11:43:14;;;;;;;13.40;2.42;;;;;;;;;;6240174;23;20053;-70
2022/06/11 11:45:39;;;;;;;9.40;2.15;;;;;;;;;;6241983;23;19992;-71
2022/06/11 11:48:05;;;;;;;11.88;2.22;;;;;;;;;;6242213;23;20051;-71
2022/06/11 11:50:38;;;;;;;8.40;2.35;;;;;;;;;;6242459;23;20004;-70
2022/06/11 11:53:23;;;;;;;12.40;2.20;;;;;;;;;;6239826;23;20526;-71
2022/06/11 11:55:57;;;;;;;9.27;2.20;;;;;;;;;;6242036;23;20008;-71
2022/06/11 11:58:37;;;;;;;6.93;1.88;;;;;;;;;;6242101;23;20098;-71
2022/06/11 12:01:07;;;;;;;8.88;2.13;;;;;;;;;;6241806;23;20009;-71
2022/06/11 12:03:41;;;;;;;16.60;2.75;;;;;;;;;;6239601;23;20016;-70
2022/06/11 12:06:07;;;;;;;9.73;2.60;;;;;;;;;;6241014;23;20424;-70
2022/06/11 12:08:45;;;;;;;8.38;1.90;;;;;;;;;;6243395;23;20008;-70
2022/06/11 12:11:28;;;;;;;8.18;2.05;;;;;;;;;;6246103;23;20004;-70
2022/06/11 12:13:58;;;;;;;11.35;2.17;;;;;;;;;;6245628;23;20431;-71
2022/06/11 12:16:37;;;;;;;5.10;1.80;;;;;;;;;;6245958;23;19996;-71
2022/06/11 12:19:05;;;;;;;14.25;2.40;;;;;;;;;;6246128;23;20008;-69
2022/06/11 12:21:32;;;;;;;7.28;2.40;;;;;;;;;;6245739;23;20079;-70
2022/06/11 12:24:03;;;;;;;12.25;2.55;;;;;;;;;;6245233;23;20012;-70
2022/06/11 12:26:30;;;;;;;13.10;2.60;;;;;;;;;;6245824;23;20003;-70
2022/06/11 12:29:05;;;;;;;8.65;2.00;;;;;;;;;;6245121;23;20015;-70
2022/06/11 12:31:31;;;;;;;7.30;1.85;;;;;;;;;;6245822;23;20031;-71
2022/06/11 12:33:57;;;;;;;9.25;2.00;;;;;;;;;;6245745;23;20004;-70
2022/06/11 12:36:39;;;;;;;6.05;1.80;;;;;;;;;;6245790;23;20083;-71
2022/06/11 12:39:07;;;;;;;6.15;1.77;;;;;;;;;;6245435;23;20079;-71
2022/06/11 12:41:33;;;;;;;13.23;2.47;;;;;;;;;;6245488;23;20102;-71
2022/06/11 12:44:17;;;;;;;12.97;2.73;;;;;;;;;;6245791;23;20015;-71
2022/06/11 12:46:42;;;;;;;13.82;2.42;;;;;;;;;;6244787;23;20709;-71
2022/06/11 12:49:14;;;;;;;10.43;1.98;;;;;;;;;;6244471;23;20015;-71
2022/06/11 12:52:05;;;;;;;10.05;2.60;;;;;;;;;;6244753;23;20075;-71
2022/06/11 12:54:45;;;;;;;12.18;2.30;;;;;;;;;;6245786;23;20004;-71
2022/06/11 12:57:20;;;;;;;10.32;2.47;;;;;;;;;;6245897;23;20004;-71
2022/06/11 13:00:01;;;;;;;9.95;2.35;;;;;;;;;;6246126;23;20046;-71
2022/06/11 13:02:35;;;;;;;10.35;2.47;;;;;;;;;;6246039;23;20020;-71
2022/06/11 13:05:15;;;;;;;10.68;2.53;;;;;;;;;;6245894;23;20004;-71
2022/06/11 13:07:46;;;;;;;12.88;2.30;;;;;;;;;;6245202;23;20008;-71
2022/06/11 13:10:11;;;;;;;12.45;2.53;;;;;;;;;;6245501;23;20000;-71
2022/06/11 13:12:56;;;;;;;15.48;2.38;;;;;;;;;;6245360;23;20007;-71
2022/06/11 13:15:31;;;;;;;9.48;2.22;;;;;;;;;;6245652;23;20008;-71
2022/06/11 13:17:59;;;;;;;14.73;2.17;;;;;;;;;;6245589;23;20004;-71
2022/06/11 13:21:03;;;;;;;11.32;2.60;;;;;;;;;;6245518;23;20315;-72
2022/06/11 13:23:35;;;;;;;9.48;2.03;;;;;;;;;;6122766;23;20025;-71
2022/06/11 13:26:16;;;;;;;8.52;2.03;;;;;;;;;;6123167;23;20010;-71
2022/06/11 13:28:50;;;;;;;11.77;2.88;;;;;;;;;;6197774;23;20079;-71
2022/06/11 13:31:23;;;;;;;9.95;1.80;;;;;;;;;;6245467;23;20448;-70
2022/06/11 13:33:48;;;;;;;;;;;;;;;;;;6246154;23;20008;-70
2022/06/11 13:36:30;;;;;;;9.15;2.20;;;;;;;;;;6245662;23;19926;-70
2022/06/11 13:38:56;;;;;;;13.93;2.78;;;;;;;;;;6244969;23;20032;-70
2022/06/11 13:41:33;;;;;;;12.48;2.65;;;;;;;;;;6247444;23;20102;-70
2022/06/11 13:44:05;;;;;;;10.23;2.50;;;;;;;;;;6247607;23;20012;-70
2022/06/11 13:46:30;;;;;;;9.83;2.10;;;;;;;;;;6247543;23;20017;-70
2022/06/11 13:49:14;;;;;;;7.82;1.88;;;;;;;;;;6247503;23;19992;-70
2022/06/11 13:51:41;;;;;;;12.50;2.50;;;;;;;;;;6247613;23;20030;-70
2022/06/11 13:57:05;;;;;;;18.80;3.42;;;;;;;;;;6247147;23;20050;-70
2022/06/11 13:59:45;;;;;;;7.78;2.10;;;;;;;;;;6247659;23;20031;-70
2022/06/11 14:02:13;;;;;;;9.60;2.60;;;;;;;;;;6246918;23;20012;-70
2022/06/11 14:04:39;;;;;;;13.05;2.17;;;;;;;;;;6247638;23;20054;-70
2022/06/11 14:07:06;;;;;;;11.50;2.45;;;;;;;;;;6247473;23;19996;-70
2022/06/11 14:12:35;;;;;;;9.43;2.00;;;;;;;;;;6246925;23;20023;-70
2022/06/11 14:15:19;;;;;;;12.40;2.22;;;;;;;;;;6247200;23;20443;-70
2022/06/11 14:17:44;;;;;;;10.00;2.63;;;;;;;;;;6247445;23;20083;-70
2022/06/11 14:20:17;;;;;;;9.73;1.80;;;;;;;;;;6247722;23;20031;-70
2022/06/11 14:22:45;;;;;;;8.07;1.90;;;;;;;;;;6247360;23;20328;-71
2022/06/11 14:25:31;;;;;;;3.72;1.50;;;;;;;;;;6246832;23;20007;-71
2022/06/11 14:28:16;;;;;;;11.55;2.30;;;;;;;;;;6246992;23;20019;-71
2022/06/11 14:31:01;;;;;;;9.95;2.05;;;;;;;;;;6246878;23;20004;-71
2022/06/11 14:33:28;;;;;;;7.32;1.63;;;;;;;;;;6243068;23;20038;-71
2022/06/11 14:35:55;;;;;;;14.98;1.75;;;;;;;;;;6247042;23;19996;-71
2022/06/11 14:38:21;;;;;;;11.02;2.10;;;;;;;;;;6245972;23;20087;-71
2022/06/11 14:40:47;;;;;;;6.60;2.00;;;;;;;;;;6246755;23;20030;-70
2022/06/11 14:43:14;;;;;;;15.68;2.75;;;;;;;;;;6246944;23;20016;-70
2022/06/11 14:45:41;;;;;;;9.57;2.72;;;;;;;;;;6246941;23;20007;-71
2022/06/11 14:48:19;;;;;;;9.18;2.03;;;;;;;;;;6247491;23;19999;-71
2022/06/11 14:50:50;;;;;;;6.95;1.50;;;;;;;;;;6246918;23;20005;-71
2022/06/11 14:53:20;;;;;;;12.82;1.70;;;;;;;;;;6246809;23;20004;-71
2022/06/11 14:55:46;;;;;;;8.35;1.80;;;;;;;;;;6246976;23;20043;-71